Time;durP1;ratioP1;P1;durP2;ratioP2;P2;SDS_P1;SDS_P2;PMS_P1;PMS_P2;Temp;Humidity;BMP_temperature;BMP_pressure;BME280_temperature;BME280_humidity;BME280_pressure;Samples;Min_cycle;Max_cycle;Signal;HPM_P1;HPM_P2
2023/03/27 00:00:19;;;;;;;0.10;0.10;;;4.50;77.40;;;;;;5000317;28;20177;-70
2023/03/27 00:02:48;;;;;;;0.00;0.00;;;4.50;77.50;;;;;;4996688;28;20503;-71
2023/03/27 00:05:15;;;;;;;0.00;0.00;;;4.50;77.30;;;;;;5026562;28;20053;-70
2023/03/27 00:07:41;;;;;;;0.00;0.00;;;4.50;77.10;;;;;;5018510;28;20038;-71
2023/03/27 00:10:08;;;;;;;0.05;0.05;;;4.50;77.10;;;;;;5027262;28;20053;-71
2023/03/27 00:12:34;;;;;;;0.20;0.20;;;4.40;77.10;;;;;;5002085;28;20045;-71
2023/03/27 00:15:00;;;;;;;0.10;0.10;;;4.40;77.00;;;;;;5013508;28;20050;-71
2023/03/27 00:17:26;;;;;;;0.08;0.08;;;4.40;77.20;;;;;;4995317;28;20056;-71
2023/03/27 00:19:52;;;;;;;0.00;0.00;;;4.30;77.20;;;;;;5023470;28;20053;-71
2023/03/27 00:22:18;;;;;;;0.00;0.00;;;4.30;77.20;;;;;;5010079;28;20379;-71
2023/03/27 00:24:44;;;;;;;0.00;0.00;;;4.20;77.40;;;;;;5013627;28;20041;-71
2023/03/27 00:27:10;;;;;;;0.00;0.00;;;4.10;77.50;;;;;;5030909;28;20955;-71
2023/03/27 00:29:36;;;;;;;0.00;0.00;;;4.10;77.60;;;;;;5029973;28;20049;-71
2023/03/27 00:32:02;;;;;;;0.00;0.00;;;4.10;77.60;;;;;;5030903;28;20041;-70
2023/03/27 00:34:29;;;;;;;0.00;0.00;;;4.00;77.50;;;;;;5020750;28;20042;-71
2023/03/27 00:36:54;;;;;;;0.00;0.00;;;4.00;77.60;;;;;;5012200;28;20053;-71
2023/03/27 00:39:20;;;;;;;0.00;0.00;;;4.00;77.50;;;;;;5023601;28;20501;-71
2023/03/27 00:41:47;;;;;;;0.00;0.00;;;3.80;77.60;;;;;;5022046;28;20395;-70
2023/03/27 00:44:30;;;;;;;0.00;0.00;;;3.80;78.00;;;;;;5003680;28;20840;-70
2023/03/27 00:46:56;;;;;;;0.00;0.00;;;3.80;78.20;;;;;;5027820;28;20046;-70
2023/03/27 00:49:26;;;;;;;0.00;0.00;;;3.80;78.20;;;;;;5016967;28;20080;-70
2023/03/27 00:51:53;;;;;;;0.10;0.10;;;3.70;78.40;;;;;;4998023;28;20058;-70
2023/03/27 00:54:28;;;;;;;0.05;0.05;;;3.70;78.30;;;;;;5004875;28;20049;-70
2023/03/27 00:56:57;;;;;;;0.10;0.10;;;3.70;78.40;;;;;;5011990;28;20084;-70
2023/03/27 00:59:29;;;;;;;0.00;0.00;;;3.70;78.40;;;;;;4981177;28;20585;-70
2023/03/27 01:01:56;;;;;;;0.00;0.00;;;3.70;78.40;;;;;;5028347;28;20056;-71
2023/03/27 01:04:22;;;;;;;0.08;0.08;;;3.70;78.60;;;;;;5012084;28;20049;-70
2023/03/27 01:06:51;;;;;;;0.00;0.00;;;3.70;78.60;;;;;;5012425;28;20056;-70
2023/03/27 01:09:17;;;;;;;0.00;0.00;;;3.60;78.70;;;;;;5016494;28;20387;-71
2023/03/27 01:11:59;;;;;;;0.00;0.00;;;3.60;78.80;;;;;;5024835;28;20041;-71
2023/03/27 01:14:39;;;;;;;0.00;0.00;;;3.60;79.00;;;;;;5029878;28;20164;-70
2023/03/27 01:17:13;;;;;;;0.00;0.00;;;3.60;78.90;;;;;;5015460;28;20050;-70
2023/03/27 01:19:57;;;;;;;0.10;0.10;;;3.60;78.80;;;;;;5007204;28;20045;-70
2023/03/27 01:22:41;;;;;;;0.00;0.00;;;3.60;78.80;;;;;;5009544;28;20045;-71
2023/03/27 01:25:29;;;;;;;0.00;0.00;;;3.60;79.20;;;;;;5019290;28;20045;-71
2023/03/27 01:28:01;;;;;;;0.00;0.00;;;3.60;79.30;;;;;;4996714;28;20046;-70
2023/03/27 01:30:34;;;;;;;0.00;0.00;;;3.60;79.50;;;;;;5011707;28;20383;-70
2023/03/27 01:33:12;;;;;;;0.00;0.00;;;3.50;79.20;;;;;;5019530;28;20080;-70
2023/03/27 01:36:12;;;;;;;0.00;0.00;;;3.40;78.90;;;;;;4994935;28;20042;-70
2023/03/27 01:39:04;;;;;;;0.10;0.10;;;3.40;78.60;;;;;;4997902;28;20115;-70
2023/03/27 01:41:38;;;;;;;0.00;0.00;;;3.50;78.30;;;;;;5008601;28;20052;-71
2023/03/27 01:44:14;;;;;;;0.00;0.00;;;3.40;78.00;;;;;;5016694;28;20042;-71
2023/03/27 01:46:58;;;;;;;0.00;0.00;;;3.50;77.90;;;;;;5019091;28;20044;-70
2023/03/27 01:49:29;;;;;;;0.00;0.00;;;3.50;77.40;;;;;;5029418;28;20057;-71
2023/03/27 01:52:02;;;;;;;0.00;0.00;;;3.60;77.10;;;;;;5031132;28;20132;-70
2023/03/27 01:54:33;;;;;;;0.00;0.00;;;3.60;77.40;;;;;;5011339;28;20045;-70
2023/03/27 01:57:14;;;;;;;0.10;0.10;;;3.60;78.70;;;;;;5005762;28;20452;-70
2023/03/27 01:59:43;;;;;;;0.10;0.10;;;3.60;79.50;;;;;;5027698;28;20045;-70
2023/03/27 02:02:16;;;;;;;0.10;0.10;;;3.60;80.90;;;;;;5031228;28;20053;-69
2023/03/27 02:05:06;;;;;;;0.00;0.00;;;3.50;81.00;;;;;;5026296;28;20793;-70
2023/03/27 02:07:38;;;;;;;0.08;0.08;;;3.40;82.20;;;;;;5029492;28;20095;-69
2023/03/27 02:10:09;;;;;;;0.00;0.00;;;3.40;82.30;;;;;;5027243;28;20141;-70
2023/03/27 02:12:42;;;;;;;0.10;0.10;;;3.40;82.10;;;;;;5023957;28;20498;-70
2023/03/27 02:15:14;;;;;;;0.00;0.00;;;3.40;82.60;;;;;;5025019;28;20044;-70
2023/03/27 02:17:47;;;;;;;0.10;0.10;;;3.40;82.50;;;;;;5029737;28;20490;-69
2023/03/27 02:20:15;;;;;;;0.00;0.00;;;3.30;83.20;;;;;;5008298;28;20513;-69
2023/03/27 02:22:47;;;;;;;0.10;0.10;;;3.30;83.10;;;;;;5024677;28;20065;-70
2023/03/27 02:25:21;;;;;;;0.00;0.00;;;3.30;83.30;;;;;;5030144;28;20768;-69
2023/03/27 02:27:49;;;;;;;6.63;1.17;;;3.20;83.30;;;;;;5030207;28;20049;-69
2023/03/27 02:30:14;;;;;;;0.10;0.10;;;3.20;83.30;;;;;;4996067;28;20438;-70
2023/03/27 02:32:55;;;;;;;0.00;0.00;;;3.20;83.30;;;;;;5030070;28;20047;-70
2023/03/27 02:35:33;;;;;;;0.00;0.00;;;3.20;83.20;;;;;;5030066;28;20042;-70
2023/03/27 02:38:13;;;;;;;0.55;0.55;;;3.20;83.20;;;;;;5030182;28;20399;-70
2023/03/27 02:40:56;;;;;;;0.10;0.10;;;3.20;83.10;;;;;;5030339;28;20077;-70
2023/03/27 02:44:19;;;;;;;0.00;0.00;;;3.20;83.20;;;;;;5030310;28;20049;-69
2023/03/27 02:46:56;;;;;;;0.05;0.05;;;3.20;83.20;;;;;;4942660;28;20050;-69
2023/03/27 02:49:31;;;;;;;0.10;0.10;;;3.50;82.30;;;;;;4968724;28;20055;-69
2023/03/27 02:52:13;;;;;;;0.00;0.00;;;3.50;81.40;;;;;;5013307;28;20049;-69
2023/03/27 02:54:46;;;;;;;0.00;0.00;;;3.50;81.00;;;;;;5029608;28;20546;-69
2023/03/27 02:57:17;;;;;;;0.00;0.00;;;3.30;81.60;;;;;;5017351;28;20042;-69
2023/03/27 02:59:51;;;;;;;0.10;0.10;;;3.20;81.90;;;;;;4993858;28;20053;-69
2023/03/27 03:02:23;;;;;;;0.00;0.00;;;3.10;82.20;;;;;;5010273;28;20406;-69
2023/03/27 03:05:00;;;;;;;0.10;0.10;;;3.00;82.70;;;;;;5014807;28;20186;-69
2023/03/27 03:07:26;;;;;;;0.10;0.10;;;2.90;82.90;;;;;;5001351;28;20560;-69
2023/03/27 03:09:53;;;;;;;0.10;0.10;;;2.90;82.90;;;;;;5025305;28;20133;-69
2023/03/27 03:12:20;;;;;;;0.10;0.10;;;3.00;83.20;;;;;;5028054;28;20053;-69
2023/03/27 03:14:46;;;;;;;0.00;0.00;;;3.00;83.10;;;;;;5011767;28;20057;-69
2023/03/27 03:17:13;;;;;;;0.10;0.10;;;2.90;83.60;;;;;;5029252;28;20061;-69
2023/03/27 03:19:39;;;;;;;0.00;0.00;;;2.90;83.60;;;;;;5026443;28;20081;-69
2023/03/27 03:22:05;;;;;;;0.00;0.00;;;2.90;82.70;;;;;;5024378;28;20512;-69
2023/03/27 03:24:32;;;;;;;0.10;0.10;;;3.00;81.70;;;;;;5022074;28;20092;-69
2023/03/27 03:26:58;;;;;;;0.00;0.00;;;3.10;80.60;;;;;;5018947;28;20053;-69
2023/03/27 03:29:28;;;;;;;0.00;0.00;;;3.10;80.30;;;;;;5010936;28;20526;-69
2023/03/27 03:31:55;;;;;;;0.10;0.10;;;3.10;79.90;;;;;;5009605;28;20053;-69
2023/03/27 03:34:21;;;;;;;0.10;0.10;;;3.20;79.40;;;;;;5022297;28;20496;-69
2023/03/27 03:36:47;;;;;;;0.15;0.15;;;3.30;79.20;;;;;;5010635;28;20049;-69
2023/03/27 03:39:14;;;;;;;0.10;0.10;;;3.40;79.00;;;;;;5028596;28;20104;-69
2023/03/27 03:41:41;;;;;;;0.00;0.00;;;3.30;79.00;;;;;;5028490;28;20037;-69
2023/03/27 03:44:07;;;;;;;0.00;0.00;;;3.40;79.30;;;;;;5027694;28;20572;-69
2023/03/27 03:46:33;;;;;;;0.00;0.00;;;3.40;79.50;;;;;;5022594;28;20038;-69
2023/03/27 03:48:59;;;;;;;0.00;0.00;;;3.40;79.70;;;;;;5002073;28;20509;-69
2023/03/27 03:51:25;;;;;;;0.00;0.00;;;3.40;80.00;;;;;;5029225;28;20053;-69
2023/03/27 03:53:51;;;;;;;3.92;1.77;;;3.40;80.30;;;;;;5027612;28;20045;-69
2023/03/27 03:56:17;;;;;;;0.10;0.10;;;3.40;80.40;;;;;;5023796;28;20395;-69
2023/03/27 03:58:42;;;;;;;0.10;0.10;;;3.40;80.70;;;;;;4988549;28;20084;-69
2023/03/27 04:01:09;;;;;;;0.00;0.00;;;3.30;80.80;;;;;;5026760;28;20049;-70
2023/03/27 04:03:35;;;;;;;0.00;0.00;;;3.20;81.00;;;;;;4992853;28;20080;-69
2023/03/27 04:06:04;;;;;;;0.00;0.00;;;3.20;80.90;;;;;;5019915;28;20544;-69
2023/03/27 04:08:30;;;;;;;0.00;0.00;;;3.30;80.90;;;;;;5028766;28;20103;-69
2023/03/27 04:10:56;;;;;;;0.00;0.00;;;3.30;80.70;;;;;;5017333;28;20079;-69
2023/03/27 04:13:22;;;;;;;0.10;0.10;;;3.30;80.40;;;;;;5029162;28;20041;-69
2023/03/27 04:15:48;;;;;;;0.00;0.00;;;3.20;80.10;;;;;;5029075;28;20121;-69
2023/03/27 04:18:15;;;;;;;0.00;0.00;;;3.20;80.00;;;;;;5028228;28;20104;-69
2023/03/27 04:20:40;;;;;;;0.00;0.00;;;3.20;79.90;;;;;;5028022;28;20045;-69
2023/03/27 04:23:07;;;;;;;0.10;0.10;;;3.30;79.60;;;;;;5025853;28;20379;-69
2023/03/27 04:25:32;;;;;;;0.10;0.10;;;3.40;79.10;;;;;;5018521;28;20128;-70
2023/03/27 04:28:01;;;;;;;0.00;0.00;;;3.40;79.20;;;;;;5008959;28;20491;-70
2023/03/27 04:30:27;;;;;;;0.00;0.00;;;3.50;79.00;;;;;;5022952;28;20049;-70
2023/03/27 04:32:53;;;;;;;0.10;0.10;;;3.50;78.60;;;;;;5028242;28;20057;-69
2023/03/27 04:35:20;;;;;;;0.20;0.20;;;3.50;78.30;;;;;;5009065;28;20124;-69
2023/03/27 04:37:47;;;;;;;0.00;0.00;;;3.50;78.10;;;;;;5010821;28;20041;-69
2023/03/27 04:40:16;;;;;;;0.00;0.00;;;3.50;77.50;;;;;;4994954;28;20049;-70
2023/03/27 04:42:43;;;;;;;0.00;0.00;;;3.50;77.30;;;;;;5028564;28;20053;-70
2023/03/27 04:45:12;;;;;;;0.00;0.00;;;3.50;77.10;;;;;;5010998;28;20045;-70
2023/03/27 04:47:38;;;;;;;0.00;0.00;;;3.50;77.10;;;;;;5026383;28;20060;-70
2023/03/27 04:50:05;;;;;;;0.00;0.00;;;3.50;77.20;;;;;;5022892;28;20145;-68
2023/03/27 04:52:32;;;;;;;0.10;0.10;;;3.50;77.20;;;;;;5028610;28;20048;-68
2023/03/27 04:55:00;;;;;;;0.00;0.00;;;3.50;77.40;;;;;;5018784;28;20050;-68
2023/03/27 04:57:32;;;;;;;0.00;0.00;;;3.50;77.60;;;;;;5020079;28;20046;-68
2023/03/27 04:59:58;;;;;;;0.00;0.00;;;3.50;78.00;;;;;;5015057;28;20076;-69
2023/03/27 05:02:25;;;;;;;0.00;0.00;;;3.50;78.20;;;;;;5015985;28;20502;-69
2023/03/27 05:04:57;;;;;;;0.10;0.10;;;3.50;78.40;;;;;;5023966;28;20076;-68
2023/03/27 05:07:24;;;;;;;0.10;0.10;;;3.40;78.70;;;;;;5018964;28;20042;-69
2023/03/27 05:09:49;;;;;;;0.10;0.10;;;3.30;79.00;;;;;;5015184;28;20049;-69
2023/03/27 05:12:15;;;;;;;0.00;0.00;;;3.30;79.70;;;;;;4982147;28;20048;-69
2023/03/27 05:14:41;;;;;;;0.00;0.00;;;3.30;79.70;;;;;;4981119;28;20111;-69
2023/03/27 05:17:08;;;;;;;0.10;0.10;;;3.30;79.80;;;;;;5016356;28;20550;-69
2023/03/27 05:19:34;;;;;;;0.00;0.00;;;3.10;80.10;;;;;;5022813;28;20125;-69
2023/03/27 05:21:59;;;;;;;0.13;0.13;;;3.10;80.30;;;;;;5025390;28;20872;-69
2023/03/27 05:24:26;;;;;;;0.10;0.10;;;3.00;80.60;;;;;;5015315;28;20418;-69
2023/03/27 05:26:52;;;;;;;0.10;0.10;;;2.90;80.60;;;;;;5017465;28;20805;-70
2023/03/27 05:29:17;;;;;;;0.00;0.00;;;2.90;81.10;;;;;;5020404;28;20129;-73
2023/03/27 05:31:43;;;;;;;0.03;0.03;;;2.90;81.10;;;;;;5028689;28;20033;-69
2023/03/27 05:34:09;;;;;;;0.00;0.00;;;2.90;81.40;;;;;;5007965;28;20045;-69
2023/03/27 05:36:34;;;;;;;0.00;0.00;;;2.90;81.50;;;;;;5001387;28;20486;-69
2023/03/27 05:39:00;;;;;;;5.47;0.65;;;2.90;81.50;;;;;;5011130;28;20412;-68
2023/03/27 05:41:26;;;;;;;0.00;0.00;;;2.90;81.50;;;;;;5028240;28;20133;-69
2023/03/27 05:43:52;;;;;;;0.00;0.00;;;2.90;81.70;;;;;;5027533;28;20045;-69
2023/03/27 05:46:19;;;;;;;0.00;0.00;;;2.90;81.50;;;;;;4989904;28;20501;-68
2023/03/27 05:48:45;;;;;;;0.00;0.00;;;3.10;81.40;;;;;;5021210;28;20056;-69
2023/03/27 05:51:10;;;;;;;0.15;0.15;;;3.10;80.90;;;;;;5015543;28;20045;-70
2023/03/27 05:53:38;;;;;;;1.25;1.25;;;3.10;80.80;;;;;;5018653;28;20053;-69
2023/03/27 05:56:05;;;;;;;0.00;0.00;;;3.20;80.30;;;;;;5016457;28;20124;-68
2023/03/27 05:58:31;;;;;;;0.10;0.10;;;3.20;80.40;;;;;;5018900;28;20056;-68
2023/03/27 06:00:57;;;;;;;0.00;0.00;;;3.20;80.30;;;;;;4999931;28;20739;-68
2023/03/27 06:03:23;;;;;;;0.00;0.00;;;3.20;80.10;;;;;;5001852;28;20051;-69
2023/03/27 06:05:49;;;;;;;0.00;0.00;;;3.20;79.90;;;;;;5016736;28;20053;-69
2023/03/27 06:08:15;;;;;;;0.00;0.00;;;3.30;79.50;;;;;;5016338;28;20091;-68
2023/03/27 06:10:42;;;;;;;0.00;0.00;;;3.20;79.20;;;;;;5018887;28;20049;-66
2023/03/27 06:13:11;;;;;;;0.03;0.03;;;3.20;79.10;;;;;;5017757;28;20038;-66
2023/03/27 06:15:39;;;;;;;0.10;0.10;;;3.30;78.90;;;;;;5018571;28;20117;-66
2023/03/27 06:18:05;;;;;;;0.00;0.00;;;3.30;78.90;;;;;;5018376;28;20080;-66
2023/03/27 06:20:31;;;;;;;0.00;0.00;;;3.30;78.80;;;;;;5017874;28;20475;-64
2023/03/27 06:22:58;;;;;;;0.00;0.00;;;3.80;82.40;;;;;;5019169;28;20041;-67
2023/03/27 06:25:26;;;;;;;0.13;0.13;;;3.80;79.40;;;;;;5018321;28;20414;-67
2023/03/27 06:27:52;;;;;;;0.38;0.38;;;3.80;79.00;;;;;;5019186;28;20045;-66
2023/03/27 06:30:21;;;;;;;0.00;0.00;;;3.80;78.70;;;;;;5018001;28;20124;-67
2023/03/27 06:32:58;;;;;;;0.00;0.00;;;3.90;78.90;;;;;;5016955;28;20064;-67
2023/03/27 06:35:26;;;;;;;0.00;0.00;;;3.80;79.20;;;;;;5017369;28;20048;-67
2023/03/27 06:37:52;;;;;;;0.05;0.05;;;3.80;79.80;;;;;;5018463;28;20053;-66
2023/03/27 06:40:23;;;;;;;0.00;0.00;;;3.90;79.90;;;;;;5016329;28;20052;-68
2023/03/27 06:42:49;;;;;;;0.00;0.00;;;3.90;80.50;;;;;;4998700;28;20054;-68
2023/03/27 06:45:15;;;;;;;0.05;0.05;;;4.10;80.40;;;;;;4983171;28;20053;-68
2023/03/27 06:47:47;;;;;;;0.00;0.00;;;4.10;80.40;;;;;;5017685;28;20422;-67
2023/03/27 06:50:12;;;;;;;0.10;0.10;;;4.10;80.90;;;;;;5016695;28;20053;-66
2023/03/27 06:52:38;;;;;;;0.10;0.10;;;4.10;80.30;;;;;;5016247;28;20509;-66
2023/03/27 06:55:04;;;;;;;0.00;0.00;;;4.20;79.90;;;;;;5017022;28;20409;-67
2023/03/27 06:57:29;;;;;;;0.10;0.10;;;4.10;79.40;;;;;;5015106;28;20072;-66
2023/03/27 06:59:56;;;;;;;0.03;0.03;;;4.20;78.90;;;;;;5016387;28;20053;-67
2023/03/27 07:02:22;;;;;;;0.00;0.00;;;4.30;78.80;;;;;;5016468;28;20056;-67
2023/03/27 07:04:47;;;;;;;0.10;0.10;;;4.30;78.50;;;;;;5015951;28;20490;-67
2023/03/27 07:07:13;;;;;;;0.05;0.05;;;4.30;78.00;;;;;;4998483;28;20044;-68
2023/03/27 07:09:38;;;;;;;0.00;0.00;;;4.40;78.00;;;;;;5018008;28;20434;-67
2023/03/27 07:12:04;;;;;;;0.80;0.80;;;4.50;76.70;;;;;;5017322;28;20041;-67
2023/03/27 07:14:30;;;;;;;0.03;0.03;;;4.60;76.90;;;;;;5017406;28;20049;-67
2023/03/27 07:16:55;;;;;;;0.03;0.03;;;4.60;77.00;;;;;;5018142;28;20072;-67
2023/03/27 07:19:21;;;;;;;0.13;0.13;;;4.70;76.60;;;;;;5018054;28;20041;-67
2023/03/27 07:21:47;;;;;;;0.00;0.00;;;4.60;77.00;;;;;;5016873;28;20037;-67
2023/03/27 07:24:12;;;;;;;0.10;0.10;;;4.50;78.30;;;;;;5018181;28;20069;-67
2023/03/27 07:26:38;;;;;;;0.00;0.00;;;4.40;79.10;;;;;;5018356;28;20045;-67
2023/03/27 07:29:09;;;;;;;0.10;0.10;;;4.30;79.80;;;;;;5001019;28;20067;-67
2023/03/27 07:31:35;;;;;;;0.10;0.10;;;4.30;80.70;;;;;;5016521;28;20049;-67
2023/03/27 07:34:01;;;;;;;0.00;0.00;;;4.30;80.60;;;;;;5016471;28;20042;-67
2023/03/27 07:36:27;;;;;;;0.10;0.10;;;4.40;81.00;;;;;;5017556;28;20064;-68
2023/03/27 07:38:53;;;;;;;0.00;0.00;;;4.40;80.40;;;;;;5016069;28;20073;-68
2023/03/27 07:41:19;;;;;;;0.00;0.00;;;4.40;80.40;;;;;;5016360;28;20157;-67
2023/03/27 07:43:45;;;;;;;0.00;0.00;;;4.40;79.80;;;;;;5014903;28;20068;-67
2023/03/27 07:46:11;;;;;;;0.00;0.00;;;4.50;80.40;;;;;;5016507;28;20045;-67
2023/03/27 07:48:37;;;;;;;0.00;0.00;;;4.60;79.90;;;;;;4999510;28;20104;-67
2023/03/27 07:51:04;;;;;;;0.10;0.10;;;4.60;77.30;;;;;;5016636;28;20498;-67
2023/03/27 07:53:30;;;;;;;0.10;0.10;;;4.70;77.30;;;;;;5015969;28;20037;-68
2023/03/27 07:55:57;;;;;;;0.10;0.10;;;4.70;76.70;;;;;;5015914;28;20057;-67
2023/03/27 07:58:24;;;;;;;4.78;3.10;;;4.70;77.30;;;;;;4998564;28;20075;-65
2023/03/27 08:00:53;;;;;;;0.00;0.00;;;4.70;77.70;;;;;;5016975;28;20190;-67
2023/03/27 08:03:19;;;;;;;0.00;0.00;;;4.90;78.00;;;;;;5016314;28;20117;-67
2023/03/27 08:05:52;;;;;;;0.00;0.00;;;4.90;78.10;;;;;;5016727;28;20071;-67
2023/03/27 08:08:18;;;;;;;0.10;0.10;;;5.00;77.90;;;;;;5017344;28;20607;-67
2023/03/27 08:10:44;;;;;;;0.00;0.00;;;5.10;77.60;;;;;;5016522;28;20061;-67
2023/03/27 08:13:11;;;;;;;0.10;0.10;;;5.00;76.50;;;;;;5017389;28;20050;-67
2023/03/27 08:15:37;;;;;;;1.60;1.50;;;5.00;77.30;;;;;;5014432;28;20095;-68
2023/03/27 08:18:03;;;;;;;0.00;0.00;;;4.90;77.40;;;;;;5016279;28;20030;-67
2023/03/27 08:20:29;;;;;;;0.00;0.00;;;5.00;77.70;;;;;;5016051;28;20045;-68
2023/03/27 08:22:55;;;;;;;0.10;0.10;;;5.10;77.40;;;;;;5016396;28;20053;-67
2023/03/27 08:25:21;;;;;;;0.00;0.00;;;5.20;76.90;;;;;;5015946;28;20064;-67
2023/03/27 08:27:47;;;;;;;0.10;0.10;;;5.20;77.00;;;;;;5017042;28;20181;-68
2023/03/27 08:30:13;;;;;;;0.00;0.00;;;4.90;77.40;;;;;;4983379;28;20533;-67
2023/03/27 08:32:40;;;;;;;0.00;0.00;;;4.60;77.90;;;;;;5020439;28;20556;-67
2023/03/27 08:35:06;;;;;;;0.10;0.10;;;4.50;78.50;;;;;;5017889;28;20042;-68
2023/03/27 08:37:33;;;;;;;0.00;0.00;;;4.30;79.30;;;;;;5021614;28;20034;-67
2023/03/27 08:40:00;;;;;;;0.00;0.00;;;4.20;80.10;;;;;;5001251;28;20041;-68
2023/03/27 08:42:35;;;;;;;1.95;1.33;;;4.20;80.20;;;;;;5019435;28;20061;-67
2023/03/27 08:45:26;;;;;;;0.00;0.00;;;4.30;80.90;;;;;;5020653;28;20105;-67
2023/03/27 08:48:03;;;;;;;0.00;0.00;;;4.40;80.80;;;;;;5000552;28;20132;-67
2023/03/27 08:50:31;;;;;;;0.00;0.00;;;4.40;80.70;;;;;;4995671;28;20112;-67
2023/03/27 08:52:58;;;;;;;0.00;0.00;;;4.50;80.40;;;;;;5019771;28;20418;-66
2023/03/27 08:55:42;;;;;;;0.00;0.00;;;4.70;79.70;;;;;;5018609;28;20045;-66
2023/03/27 08:58:19;;;;;;;0.00;0.00;;;4.80;79.10;;;;;;5015994;28;20521;-66
2023/03/27 09:00:51;;;;;;;0.00;0.00;;;4.90;78.10;;;;;;5018324;28;20045;-66
2023/03/27 09:03:20;;;;;;;;;;;5.10;78.20;;;;;;5020590;28;20125;-67
2023/03/27 09:05:57;;;;;;;0.00;0.00;;;5.20;78.30;;;;;;5029769;28;19957;-67
2023/03/27 09:08:33;;;;;;;0.05;0.05;;;5.40;77.60;;;;;;5019952;28;20043;-67
2023/03/27 09:11:27;;;;;;;0.00;0.00;;;5.60;77.50;;;;;;5031674;28;20045;-67
2023/03/27 09:13:53;;;;;;;0.10;0.10;;;5.70;75.40;;;;;;5020359;28;20133;-67
2023/03/27 09:16:30;;;;;;;0.10;0.10;;;5.70;74.60;;;;;;5030644;28;20120;-68
2023/03/27 09:19:07;;;;;;;0.10;0.10;;;5.80;75.10;;;;;;5030955;28;20379;-67
2023/03/27 09:21:39;;;;;;;0.00;0.00;;;5.90;75.40;;;;;;5031386;28;20045;-67
2023/03/27 09:24:12;;;;;;;0.80;0.80;;;5.60;72.20;;;;;;5030571;28;20048;-67
2023/03/27 09:26:37;;;;;;;0.00;0.00;;;5.40;70.60;;;;;;5031545;28;20042;-65
2023/03/27 09:29:18;;;;;;;0.10;0.10;;;5.30;71.70;;;;;;5030874;28;20040;-67
2023/03/27 09:31:49;;;;;;;0.30;0.30;;;5.40;71.80;;;;;;4992970;28;20049;-68
2023/03/27 09:34:24;;;;;;;0.00;0.00;;;5.50;70.80;;;;;;5000194;28;20511;-68
2023/03/27 09:36:50;;;;;;;0.00;0.00;;;5.40;68.00;;;;;;5019182;28;20033;-68
2023/03/27 09:39:21;;;;;;;0.00;0.00;;;5.40;69.90;;;;;;5001607;28;20048;-68
2023/03/27 09:41:54;;;;;;;0.10;0.10;;;5.30;71.40;;;;;;5019974;28;20069;-68
2023/03/27 09:44:32;;;;;;;0.10;0.10;;;5.40;72.50;;;;;;5018769;28;20065;-68
2023/03/27 09:47:05;;;;;;;0.00;0.00;;;5.50;73.30;;;;;;5018192;28;20145;-67
2023/03/27 09:49:33;;;;;;;0.00;0.00;;;5.50;70.90;;;;;;5019151;28;20056;-67
2023/03/27 09:51:59;;;;;;;0.00;0.00;;;5.60;71.30;;;;;;5002022;28;20046;-67
2023/03/27 09:54:30;;;;;;;0.00;0.00;;;5.60;71.70;;;;;;5020563;28;20044;-67
2023/03/27 09:57:10;;;;;;;0.10;0.10;;;5.70;71.70;;;;;;5017045;28;20037;-68
2023/03/27 09:59:57;;;;;;;7.55;2.45;;;5.70;70.40;;;;;;5019878;28;20417;-68
2023/03/27 10:02:28;;;;;;;0.10;0.10;;;5.90;70.90;;;;;;5001777;28;20080;-68
2023/03/27 10:05:01;;;;;;;0.00;0.00;;;5.90;69.90;;;;;;5018533;28;20526;-68
2023/03/27 10:07:27;;;;;;;0.10;0.10;;;6.10;70.20;;;;;;5015282;28;20057;-65
2023/03/27 10:10:16;;;;;;;0.10;0.10;;;6.00;68.90;;;;;;5018633;28;20606;-68
2023/03/27 10:12:42;;;;;;;0.00;0.00;;;6.10;69.40;;;;;;4983286;28;20049;-65
2023/03/27 10:15:38;;;;;;;0.00;0.00;;;6.30;68.10;;;;;;5018224;28;20079;-65
2023/03/27 10:18:26;;;;;;;0.00;0.00;;;6.20;68.20;;;;;;4998787;28;20046;-66
2023/03/27 10:20:54;;;;;;;0.10;0.10;;;6.40;68.00;;;;;;5014184;28;20050;-66
2023/03/27 10:23:28;;;;;;;0.00;0.00;;;6.40;67.90;;;;;;5018115;28;20045;-66
2023/03/27 10:26:03;;;;;;;0.10;0.10;;;6.60;65.50;;;;;;5018286;28;20034;-66
2023/03/27 10:28:33;;;;;;;0.57;0.57;;;6.70;65.00;;;;;;5019580;28;20071;-67
2023/03/27 10:31:03;;;;;;;0.08;0.08;;;6.80;64.40;;;;;;5018065;28;20033;-67
2023/03/27 10:33:35;;;;;;;0.82;0.80;;;6.90;63.90;;;;;;5000851;28;20052;-65
2023/03/27 10:36:01;;;;;;;0.00;0.00;;;6.90;65.60;;;;;;5016958;28;20474;-67
2023/03/27 10:38:28;;;;;;;0.00;0.00;;;6.80;66.30;;;;;;5018560;28;20084;-66
2023/03/27 10:40:55;;;;;;;0.00;0.00;;;7.00;67.60;;;;;;5018005;28;20038;-66
2023/03/27 10:43:32;;;;;;;0.00;0.00;;;6.80;65.70;;;;;;5015751;28;20116;-66
2023/03/27 10:46:03;;;;;;;0.10;0.10;;;6.60;63.20;;;;;;5017482;28;20494;-66
2023/03/27 10:48:58;;;;;;;0.10;0.10;;;6.50;62.40;;;;;;5018303;28;20052;-66
2023/03/27 10:51:27;;;;;;;0.10;0.10;;;6.60;60.30;;;;;;5008880;28;20345;-65
2023/03/27 10:54:00;;;;;;;0.10;0.10;;;6.60;57.80;;;;;;5017461;28;20042;-66
2023/03/27 10:56:48;;;;;;;0.00;0.00;;;6.60;57.30;;;;;;5015324;28;20036;-66
2023/03/27 10:59:32;;;;;;;0.05;0.05;;;6.80;58.00;;;;;;5017632;28;20045;-66
2023/03/27 11:02:29;;;;;;;0.00;0.00;;;7.00;58.60;;;;;;5017959;28;20164;-66
2023/03/27 11:05:06;;;;;;;0.00;0.00;;;7.00;59.10;;;;;;4990422;28;20735;-66
2023/03/27 11:07:39;;;;;;;0.08;0.08;;;7.00;60.40;;;;;;5015858;28;20127;-66
2023/03/27 11:10:17;;;;;;;0.00;0.00;;;7.10;61.90;;;;;;5015948;28;20049;-66
2023/03/27 11:12:52;;;;;;;0.00;0.00;;;7.10;64.50;;;;;;5000333;28;20141;-66
2023/03/27 11:15:24;;;;;;;0.00;0.00;;;7.10;65.10;;;;;;5000978;28;20060;-67
2023/03/27 11:17:56;;;;;;;0.00;0.00;;;7.10;61.60;;;;;;5017331;28;20445;-66
2023/03/27 11:20:30;;;;;;;0.00;0.00;;;7.10;61.00;;;;;;5015372;28;20127;-66
2023/03/27 11:23:04;;;;;;;2.42;1.65;;;7.20;61.20;;;;;;5014432;28;21187;-66
2023/03/27 11:25:45;;;;;;;0.00;0.00;;;7.30;62.00;;;;;;5017270;28;20041;-66
2023/03/27 11:28:42;;;;;;;0.00;0.00;;;7.40;61.80;;;;;;5019005;28;20064;-66
2023/03/27 11:31:36;;;;;;;0.00;0.00;;;7.40;60.20;;;;;;5017058;28;20041;-66
2023/03/27 11:34:33;;;;;;;0.00;0.00;;;7.40;60.70;;;;;;5016095;28;20057;-66
2023/03/27 11:37:33;;;;;;;0.00;0.00;;;7.30;61.00;;;;;;4999246;28;20472;-66
2023/03/27 11:40:12;;;;;;;0.00;0.00;;;7.20;62.20;;;;;;5017309;28;20041;-66
2023/03/27 11:42:44;;;;;;;0.00;0.00;;;7.20;60.20;;;;;;4999157;28;20041;-66
2023/03/27 11:45:13;;;;;;;;;;;7.40;57.40;;;;;;5017688;28;20482;-66
2023/03/27 11:48:00;;;;;;;0.00;0.00;;;7.30;57.90;;;;;;5015468;28;19929;-65
2023/03/27 11:50:42;;;;;;;0.00;0.00;;;7.30;59.30;;;;;;4971306;28;20157;-65
2023/03/27 11:53:40;;;;;;;0.00;0.00;;;7.30;60.80;;;;;;5016656;28;20041;-65
2023/03/27 11:56:38;;;;;;;0.00;0.00;;;7.10;60.60;;;;;;5014029;28;20053;-65
2023/03/27 11:59:09;;;;;;;0.00;0.00;;;7.20;59.10;;;;;;5017441;28;20513;-65
2023/03/27 12:01:46;;;;;;;0.10;0.10;;;7.20;58.20;;;;;;5017959;28;20047;-65
2023/03/27 12:04:49;;;;;;;0.00;0.00;;;7.10;59.30;;;;;;5017819;28;20072;-65
2023/03/27 12:07:17;;;;;;;0.10;0.10;;;7.20;58.90;;;;;;5017377;28;20037;-65
2023/03/27 12:09:56;;;;;;;0.10;0.10;;;7.20;60.10;;;;;;5017997;28;20402;-65
2023/03/27 12:12:36;;;;;;;0.17;0.17;;;7.30;59.60;;;;;;5013344;28;20096;-65
2023/03/27 12:15:16;;;;;;;0.00;0.00;;;7.20;59.60;;;;;;5014711;28;20132;-65
2023/03/27 12:17:57;;;;;;;0.00;0.00;;;7.30;61.00;;;;;;5017517;28;20038;-65
2023/03/27 12:20:38;;;;;;;0.00;0.00;;;7.50;62.10;;;;;;5014234;28;20045;-65
2023/03/27 12:23:22;;;;;;;0.00;0.00;;;7.60;62.20;;;;;;5017110;28;20080;-65
2023/03/27 12:26:22;;;;;;;0.10;0.10;;;7.60;59.60;;;;;;5015806;28;20045;-64
2023/03/27 12:28:59;;;;;;;0.00;0.00;;;7.50;57.90;;;;;;5012253;28;20053;-65
2023/03/27 12:31:40;;;;;;;0.20;0.20;;;7.60;59.20;;;;;;5015944;28;20392;-65
2023/03/27 12:34:25;;;;;;;0.00;0.00;;;7.60;57.70;;;;;;5015841;28;20128;-65
2023/03/27 12:36:52;;;;;;;0.00;0.00;;;7.40;57.40;;;;;;5015178;28;20046;-66
2023/03/27 12:39:21;;;;;;;0.10;0.10;;;7.40;59.80;;;;;;5015577;28;20154;-66
2023/03/27 12:41:47;;;;;;;0.00;0.00;;;7.60;56.70;;;;;;4997683;28;20418;-66
2023/03/27 12:44:16;;;;;;;0.00;0.00;;;7.60;57.50;;;;;;5017581;28;20045;-66
2023/03/27 12:46:42;;;;;;;0.00;0.00;;;7.60;59.60;;;;;;4997484;28;20423;-66
2023/03/27 12:49:10;;;;;;;0.00;0.00;;;7.50;61.80;;;;;;5016464;28;20133;-66
2023/03/27 12:51:38;;;;;;;0.00;0.00;;;7.30;62.50;;;;;;5016073;28;20069;-66
2023/03/27 12:54:24;;;;;;;0.00;0.00;;;7.00;63.30;;;;;;5016212;28;20060;-66
2023/03/27 12:57:06;;;;;;;0.03;0.03;;;7.10;63.80;;;;;;5016824;28;20061;-66
2023/03/27 12:59:57;;;;;;;4.70;2.50;;;7.20;61.70;;;;;;5015033;28;20044;-65
2023/03/27 13:02:49;;;;;;;0.00;0.00;;;7.40;61.90;;;;;;5015010;28;20505;-65
2023/03/27 13:05:44;;;;;;;0.00;0.00;;;7.60;61.90;;;;;;5014512;28;20045;-65
2023/03/27 13:08:23;;;;;;;0.08;0.08;;;7.60;62.30;;;;;;5016562;28;20335;-65
2023/03/27 13:11:00;;;;;;;0.10;0.10;;;7.60;62.30;;;;;;5015654;28;20042;-65
2023/03/27 13:13:44;;;;;;;0.00;0.00;;;7.80;58.80;;;;;;5016835;28;20072;-65
2023/03/27 13:16:31;;;;;;;0.00;0.00;;;7.60;56.70;;;;;;5015807;28;20048;-65
2023/03/27 13:19:04;;;;;;;0.08;0.08;;;7.70;56.90;;;;;;5020564;28;20073;-66
2023/03/27 13:21:50;;;;;;;2.05;1.23;;;7.80;56.30;;;;;;5021083;28;20050;-65